sensor_id;sensor_type;location;lat;lon;timestamp;temperature;humidity
53748;DHT22;39655;53.210;5.768;2023-03-11T00:01:54;1.20;84.20
53748;DHT22;39655;53.210;5.768;2023-03-11T00:04:26;1.20;84.60
53748;DHT22;39655;53.210;5.768;2023-03-11T00:06:58;1.10;84.60
53748;DHT22;39655;53.210;5.768;2023-03-11T00:09:47;1.10;83.90
53748;DHT22;39655;53.210;5.768;2023-03-11T00:12:16;1.20;81.40
53748;DHT22;39655;53.210;5.768;2023-03-11T00:14:47;1.20;81.30
53748;DHT22;39655;53.210;5.768;2023-03-11T00:17:24;1.20;80.80
53748;DHT22;39655;53.210;5.768;2023-03-11T00:20:03;1.20;79.00
53748;DHT22;39655;53.210;5.768;2023-03-11T00:22:32;1.20;79.30
53748;DHT22;39655;53.210;5.768;2023-03-11T00:25:01;1.20;79.80
53748;DHT22;39655;53.210;5.768;2023-03-11T00:27:29;1.20;80.70
53748;DHT22;39655;53.210;5.768;2023-03-11T00:30:17;1.20;81.20
53748;DHT22;39655;53.210;5.768;2023-03-11T00:32:43;1.10;81.60
53748;DHT22;39655;53.210;5.768;2023-03-11T00:35:16;1.10;82.00
53748;DHT22;39655;53.210;5.768;2023-03-11T00:37:44;1.10;82.60
53748;DHT22;39655;53.210;5.768;2023-03-11T00:40:15;1.10;82.70
53748;DHT22;39655;53.210;5.768;2023-03-11T00:42:41;1.10;83.10
53748;DHT22;39655;53.210;5.768;2023-03-11T00:45:07;1.10;82.60
53748;DHT22;39655;53.210;5.768;2023-03-11T00:47:37;1.10;83.30
53748;DHT22;39655;53.210;5.768;2023-03-11T00:50:07;1.00;83.80
53748;DHT22;39655;53.210;5.768;2023-03-11T00:52:34;1.00;83.80
53748;DHT22;39655;53.210;5.768;2023-03-11T00:55:04;1.00;84.50
53748;DHT22;39655;53.210;5.768;2023-03-11T00:57:30;1.00;84.60
53748;DHT22;39655;53.210;5.768;2023-03-11T00:59:58;1.00;84.60
53748;DHT22;39655;53.210;5.768;2023-03-11T01:02:24;1.10;84.80
53748;DHT22;39655;53.210;5.768;2023-03-11T01:04:56;1.10;85.80
53748;DHT22;39655;53.210;5.768;2023-03-11T01:07:22;1.10;86.60
53748;DHT22;39655;53.210;5.768;2023-03-11T01:09:47;1.10;86.90
53748;DHT22;39655;53.210;5.768;2023-03-11T01:12:13;1.10;87.40
53748;DHT22;39655;53.210;5.768;2023-03-11T01:14:39;1.20;87.80
53748;DHT22;39655;53.210;5.768;2023-03-11T01:17:05;1.20;88.10
53748;DHT22;39655;53.210;5.768;2023-03-11T01:19:31;1.20;88.10
53748;DHT22;39655;53.210;5.768;2023-03-11T01:21:56;1.20;88.10
53748;DHT22;39655;53.210;5.768;2023-03-11T01:24:22;1.20;88.10
53748;DHT22;39655;53.210;5.768;2023-03-11T01:26:48;1.30;89.10
53748;DHT22;39655;53.210;5.768;2023-03-11T01:29:14;1.30;88.90
53748;DHT22;39655;53.210;5.768;2023-03-11T01:31:40;1.30;88.40
53748;DHT22;39655;53.210;5.768;2023-03-11T01:34:08;1.30;88.50
53748;DHT22;39655;53.210;5.768;2023-03-11T01:36:34;1.20;86.90
53748;DHT22;39655;53.210;5.768;2023-03-11T01:39:00;1.20;88.10
53748;DHT22;39655;53.210;5.768;2023-03-11T01:41:26;1.10;87.10
53748;DHT22;39655;53.210;5.768;2023-03-11T01:43:53;1.10;87.60
53748;DHT22;39655;53.210;5.768;2023-03-11T01:48:54;1.00;86.60
53748;DHT22;39655;53.210;5.768;2023-03-11T01:51:29;1.00;86.70
53748;DHT22;39655;53.210;5.768;2023-03-11T01:53:59;0.90;86.60
53748;DHT22;39655;53.210;5.768;2023-03-11T01:56:27;0.80;86.80
53748;DHT22;39655;53.210;5.768;2023-03-11T01:58:53;0.80;86.70
53748;DHT22;39655;53.210;5.768;2023-03-11T02:01:21;0.80;87.80
53748;DHT22;39655;53.210;5.768;2023-03-11T02:03:47;0.80;88.20
53748;DHT22;39655;53.210;5.768;2023-03-11T02:06:18;0.80;88.00
53748;DHT22;39655;53.210;5.768;2023-03-11T02:08:48;0.90;87.70
53748;DHT22;39655;53.210;5.768;2023-03-11T02:11:20;0.90;87.00
53748;DHT22;39655;53.210;5.768;2023-03-11T02:13:47;0.90;87.80
53748;DHT22;39655;53.210;5.768;2023-03-11T02:16:14;0.90;87.40
53748;DHT22;39655;53.210;5.768;2023-03-11T02:18:42;0.90;85.70
53748;DHT22;39655;53.210;5.768;2023-03-11T02:21:30;0.90;85.80
53748;DHT22;39655;53.210;5.768;2023-03-11T02:24:20;0.80;86.20
53748;DHT22;39655;53.210;5.768;2023-03-11T02:27:06;0.70;87.30
53748;DHT22;39655;53.210;5.768;2023-03-11T02:29:33;0.70;86.60
53748;DHT22;39655;53.210;5.768;2023-03-11T02:32:03;0.70;87.30
53748;DHT22;39655;53.210;5.768;2023-03-11T02:34:32;0.70;88.20
53748;DHT22;39655;53.210;5.768;2023-03-11T02:36:59;0.70;88.20
53748;DHT22;39655;53.210;5.768;2023-03-11T02:39:32;0.70;88.30
53748;DHT22;39655;53.210;5.768;2023-03-11T02:42:03;0.60;88.30
53748;DHT22;39655;53.210;5.768;2023-03-11T02:44:30;0.60;88.50
53748;DHT22;39655;53.210;5.768;2023-03-11T02:46:56;0.50;88.60
53748;DHT22;39655;53.210;5.768;2023-03-11T02:49:22;0.40;88.90
53748;DHT22;39655;53.210;5.768;2023-03-11T02:51:48;0.40;89.10
53748;DHT22;39655;53.210;5.768;2023-03-11T02:54:16;0.30;89.10
53748;DHT22;39655;53.210;5.768;2023-03-11T02:56:42;0.30;89.20
53748;DHT22;39655;53.210;5.768;2023-03-11T02:59:08;0.20;88.90
53748;DHT22;39655;53.210;5.768;2023-03-11T03:01:37;0.20;88.80
53748;DHT22;39655;53.210;5.768;2023-03-11T03:04:04;0.20;88.90
53748;DHT22;39655;53.210;5.768;2023-03-11T03:06:32;0.10;88.70
53748;DHT22;39655;53.210;5.768;2023-03-11T03:08:58;0.10;88.50
53748;DHT22;39655;53.210;5.768;2023-03-11T03:11:24;0.10;88.80
53748;DHT22;39655;53.210;5.768;2023-03-11T03:13:50;0.10;88.60
53748;DHT22;39655;53.210;5.768;2023-03-11T03:16:15;0.00;89.20
53748;DHT22;39655;53.210;5.768;2023-03-11T03:18:41;0.10;89.20
53748;DHT22;39655;53.210;5.768;2023-03-11T03:21:07;0.10;89.60
53748;DHT22;39655;53.210;5.768;2023-03-11T03:23:32;0.10;90.60
53748;DHT22;39655;53.210;5.768;2023-03-11T03:26:04;0.20;90.60
53748;DHT22;39655;53.210;5.768;2023-03-11T03:28:30;0.20;90.20
53748;DHT22;39655;53.210;5.768;2023-03-11T03:31:02;0.20;90.30
53748;DHT22;39655;53.210;5.768;2023-03-11T03:33:27;0.20;90.10
53748;DHT22;39655;53.210;5.768;2023-03-11T03:35:53;0.10;90.10
53748;DHT22;39655;53.210;5.768;2023-03-11T03:38:19;0.10;89.90
53748;DHT22;39655;53.210;5.768;2023-03-11T03:40:46;0.10;89.40
53748;DHT22;39655;53.210;5.768;2023-03-11T03:43:12;0.00;89.40
53748;DHT22;39655;53.210;5.768;2023-03-11T03:45:38;0.00;89.80
53748;DHT22;39655;53.210;5.768;2023-03-11T03:48:06;0.00;90.00
53748;DHT22;39655;53.210;5.768;2023-03-11T03:50:32;0.00;90.00
53748;DHT22;39655;53.210;5.768;2023-03-11T03:52:58;0.00;90.10
53748;DHT22;39655;53.210;5.768;2023-03-11T03:55:24;0.00;89.90
53748;DHT22;39655;53.210;5.768;2023-03-11T03:57:50;0.00;90.00
53748;DHT22;39655;53.210;5.768;2023-03-11T04:00:16;-3276.70;90.10
53748;DHT22;39655;53.210;5.768;2023-03-11T04:02:42;-3276.60;89.80
53748;DHT22;39655;53.210;5.768;2023-03-11T04:05:08;-3276.60;89.60
53748;DHT22;39655;53.210;5.768;2023-03-11T04:07:35;-3276.50;89.40
53748;DHT22;39655;53.210;5.768;2023-03-11T04:10:01;-3276.40;89.30
53748;DHT22;39655;53.210;5.768;2023-03-11T04:12:26;-3276.30;89.20
53748;DHT22;39655;53.210;5.768;2023-03-11T04:14:52;-3276.20;89.10
53748;DHT22;39655;53.210;5.768;2023-03-11T04:17:18;-3276.20;89.10
53748;DHT22;39655;53.210;5.768;2023-03-11T04:19:44;-3276.10;89.00
53748;DHT22;39655;53.210;5.768;2023-03-11T04:22:10;-3276.00;89.00
53748;DHT22;39655;53.210;5.768;2023-03-11T04:24:36;-3276.00;89.00
53748;DHT22;39655;53.210;5.768;2023-03-11T04:27:07;-3275.90;89.00
53748;DHT22;39655;53.210;5.768;2023-03-11T04:29:33;-3275.90;89.10
53748;DHT22;39655;53.210;5.768;2023-03-11T04:31:59;-3275.90;89.20
53748;DHT22;39655;53.210;5.768;2023-03-11T04:34:24;-3275.90;89.40
53748;DHT22;39655;53.210;5.768;2023-03-11T04:36:52;-3275.80;89.30
53748;DHT22;39655;53.210;5.768;2023-03-11T04:39:18;-3275.80;89.40
53748;DHT22;39655;53.210;5.768;2023-03-11T04:41:44;-3275.80;89.40
53748;DHT22;39655;53.210;5.768;2023-03-11T04:44:09;-3275.70;89.40
53748;DHT22;39655;53.210;5.768;2023-03-11T04:46:35;-3275.60;89.40
53748;DHT22;39655;53.210;5.768;2023-03-11T04:49:01;-3275.60;89.50
53748;DHT22;39655;53.210;5.768;2023-03-11T04:51:27;-3275.60;89.60
53748;DHT22;39655;53.210;5.768;2023-03-11T04:53:53;-3275.50;89.70
53748;DHT22;39655;53.210;5.768;2023-03-11T04:56:18;-3275.50;89.70
53748;DHT22;39655;53.210;5.768;2023-03-11T04:58:44;-3275.40;89.90
53748;DHT22;39655;53.210;5.768;2023-03-11T05:01:10;-3275.40;90.00
53748;DHT22;39655;53.210;5.768;2023-03-11T05:03:36;-3275.40;90.10
53748;DHT22;39655;53.210;5.768;2023-03-11T05:06:01;-3275.40;90.10
53748;DHT22;39655;53.210;5.768;2023-03-11T05:08:27;-3275.40;90.10
53748;DHT22;39655;53.210;5.768;2023-03-11T05:10:56;-3275.40;90.20
53748;DHT22;39655;53.210;5.768;2023-03-11T05:13:21;-3275.30;90.20
53748;DHT22;39655;53.210;5.768;2023-03-11T05:15:47;-3275.30;90.30
53748;DHT22;39655;53.210;5.768;2023-03-11T05:18:14;-3275.20;90.20
53748;DHT22;39655;53.210;5.768;2023-03-11T05:20:40;-3275.20;90.30
53748;DHT22;39655;53.210;5.768;2023-03-11T05:23:05;-3275.10;90.30
53748;DHT22;39655;53.210;5.768;2023-03-11T05:25:31;-3275.10;90.40
53748;DHT22;39655;53.210;5.768;2023-03-11T05:27:57;-3275.20;90.50
53748;DHT22;39655;53.210;5.768;2023-03-11T05:30:23;-3275.10;90.50
53748;DHT22;39655;53.210;5.768;2023-03-11T05:32:49;-3275.10;90.60
53748;DHT22;39655;53.210;5.768;2023-03-11T05:35:14;-3275.10;90.60
53748;DHT22;39655;53.210;5.768;2023-03-11T05:37:40;-3275.10;90.60
53748;DHT22;39655;53.210;5.768;2023-03-11T05:40:08;-3275.10;90.60
53748;DHT22;39655;53.210;5.768;2023-03-11T05:42:35;-3275.00;90.70
53748;DHT22;39655;53.210;5.768;2023-03-11T05:45:01;-3275.00;90.70
53748;DHT22;39655;53.210;5.768;2023-03-11T05:47:26;-3275.00;90.80
53748;DHT22;39655;53.210;5.768;2023-03-11T05:49:52;-3274.90;90.80
53748;DHT22;39655;53.210;5.768;2023-03-11T05:52:18;-3274.90;90.90
53748;DHT22;39655;53.210;5.768;2023-03-11T05:54:44;-3274.90;90.90
53748;DHT22;39655;53.210;5.768;2023-03-11T05:57:09;-3274.90;90.90
53748;DHT22;39655;53.210;5.768;2023-03-11T05:59:35;-3274.90;91.00
53748;DHT22;39655;53.210;5.768;2023-03-11T06:02:02;-3274.90;91.00
53748;DHT22;39655;53.210;5.768;2023-03-11T06:04:31;-3274.90;91.10
53748;DHT22;39655;53.210;5.768;2023-03-11T06:06:57;-3274.80;91.10
53748;DHT22;39655;53.210;5.768;2023-03-11T06:09:23;-3274.80;91.10
53748;DHT22;39655;53.210;5.768;2023-03-11T06:11:51;-3274.90;91.20
53748;DHT22;39655;53.210;5.768;2023-03-11T06:14:17;-3274.90;91.20
53748;DHT22;39655;53.210;5.768;2023-03-11T06:16:43;-3274.90;91.30
53748;DHT22;39655;53.210;5.768;2023-03-11T06:19:12;-3274.90;91.40
53748;DHT22;39655;53.210;5.768;2023-03-11T06:21:38;-3275.00;91.40
53748;DHT22;39655;53.210;5.768;2023-03-11T06:24:07;-3275.00;91.50
53748;DHT22;39655;53.210;5.768;2023-03-11T06:26:33;-3275.00;91.60
53748;DHT22;39655;53.210;5.768;2023-03-11T06:29:02;-3274.90;91.60
53748;DHT22;39655;53.210;5.768;2023-03-11T06:31:28;-3274.90;91.60
53748;DHT22;39655;53.210;5.768;2023-03-11T06:33:55;-3275.00;91.70
53748;DHT22;39655;53.210;5.768;2023-03-11T06:36:21;-3275.00;91.70
53748;DHT22;39655;53.210;5.768;2023-03-11T06:38:49;-3275.10;91.70
53748;DHT22;39655;53.210;5.768;2023-03-11T06:41:16;-3275.10;91.80
53748;DHT22;39655;53.210;5.768;2023-03-11T06:43:42;-3275.10;91.80
53748;DHT22;39655;53.210;5.768;2023-03-11T06:46:12;-3275.10;91.80
53748;DHT22;39655;53.210;5.768;2023-03-11T06:48:40;-3275.10;91.80
53748;DHT22;39655;53.210;5.768;2023-03-11T06:51:06;-3275.20;91.90
53748;DHT22;39655;53.210;5.768;2023-03-11T06:53:33;-3275.20;91.90
53748;DHT22;39655;53.210;5.768;2023-03-11T06:56:04;-3275.20;92.00
53748;DHT22;39655;53.210;5.768;2023-03-11T06:58:37;-3275.30;92.00
53748;DHT22;39655;53.210;5.768;2023-03-11T07:01:09;-3275.30;92.00
53748;DHT22;39655;53.210;5.768;2023-03-11T07:03:41;-3275.40;92.10
53748;DHT22;39655;53.210;5.768;2023-03-11T07:06:12;-3275.40;92.10
53748;DHT22;39655;53.210;5.768;2023-03-11T07:08:49;-3275.50;92.20
53748;DHT22;39655;53.210;5.768;2023-03-11T07:11:20;-3275.60;92.10
53748;DHT22;39655;53.210;5.768;2023-03-11T07:13:47;-3275.60;92.10
53748;DHT22;39655;53.210;5.768;2023-03-11T07:16:15;-3275.70;92.20
53748;DHT22;39655;53.210;5.768;2023-03-11T07:18:43;-3275.80;92.20
53748;DHT22;39655;53.210;5.768;2023-03-11T07:21:12;-3275.80;92.20
53748;DHT22;39655;53.210;5.768;2023-03-11T07:23:38;-3276.00;92.30
53748;DHT22;39655;53.210;5.768;2023-03-11T07:26:08;-3276.00;92.20
53748;DHT22;39655;53.210;5.768;2023-03-11T07:28:38;-3276.10;92.30
53748;DHT22;39655;53.210;5.768;2023-03-11T07:31:08;-3276.20;92.30
53748;DHT22;39655;53.210;5.768;2023-03-11T07:33:37;-3276.20;92.30
53748;DHT22;39655;53.210;5.768;2023-03-11T07:36:32;-3276.30;92.30
53748;DHT22;39655;53.210;5.768;2023-03-11T07:39:00;-3276.50;92.30
53748;DHT22;39655;53.210;5.768;2023-03-11T07:41:29;-3276.60;92.20
53748;DHT22;39655;53.210;5.768;2023-03-11T07:43:57;-3276.70;92.20
53748;DHT22;39655;53.210;5.768;2023-03-11T07:46:24;0.00;92.20
53748;DHT22;39655;53.210;5.768;2023-03-11T07:48:51;0.00;92.10
53748;DHT22;39655;53.210;5.768;2023-03-11T07:51:20;0.00;92.10
53748;DHT22;39655;53.210;5.768;2023-03-11T07:53:47;0.10;92.00
53748;DHT22;39655;53.210;5.768;2023-03-11T07:56:14;0.20;92.00
53748;DHT22;39655;53.210;5.768;2023-03-11T07:58:41;0.20;91.90
53748;DHT22;39655;53.210;5.768;2023-03-11T08:01:09;0.30;91.80
53748;DHT22;39655;53.210;5.768;2023-03-11T08:03:36;0.40;91.80
53748;DHT22;39655;53.210;5.768;2023-03-11T08:06:02;0.50;91.80
53748;DHT22;39655;53.210;5.768;2023-03-11T08:08:29;0.60;91.80
53748;DHT22;39655;53.210;5.768;2023-03-11T08:10:54;0.70;92.10
53748;DHT22;39655;53.210;5.768;2023-03-11T08:13:20;0.90;92.10
53748;DHT22;39655;53.210;5.768;2023-03-11T08:15:46;0.90;92.10
53748;DHT22;39655;53.210;5.768;2023-03-11T08:18:11;1.10;92.10
53748;DHT22;39655;53.210;5.768;2023-03-11T08:20:38;1.10;92.20
53748;DHT22;39655;53.210;5.768;2023-03-11T08:23:07;1.20;92.10
53748;DHT22;39655;53.210;5.768;2023-03-11T08:25:32;1.30;92.10
53748;DHT22;39655;53.210;5.768;2023-03-11T08:27:58;1.40;92.10
53748;DHT22;39655;53.210;5.768;2023-03-11T08:30:24;1.50;92.10
53748;DHT22;39655;53.210;5.768;2023-03-11T08:32:49;1.60;92.00
53748;DHT22;39655;53.210;5.768;2023-03-11T08:35:16;1.70;91.40
53748;DHT22;39655;53.210;5.768;2023-03-11T08:37:41;1.70;90.60
53748;DHT22;39655;53.210;5.768;2023-03-11T08:40:08;1.80;90.20
53748;DHT22;39655;53.210;5.768;2023-03-11T08:42:35;1.90;90.30
53748;DHT22;39655;53.210;5.768;2023-03-11T08:45:00;1.90;90.20
53748;DHT22;39655;53.210;5.768;2023-03-11T08:47:26;2.00;90.10
53748;DHT22;39655;53.210;5.768;2023-03-11T08:49:52;2.00;89.60
53748;DHT22;39655;53.210;5.768;2023-03-11T08:52:17;2.10;89.50
53748;DHT22;39655;53.210;5.768;2023-03-11T08:54:43;2.10;89.10
53748;DHT22;39655;53.210;5.768;2023-03-11T08:57:08;2.20;88.90
53748;DHT22;39655;53.210;5.768;2023-03-11T08:59:35;2.20;89.00
53748;DHT22;39655;53.210;5.768;2023-03-11T09:02:01;2.30;88.30
53748;DHT22;39655;53.210;5.768;2023-03-11T09:04:26;2.40;88.10
53748;DHT22;39655;53.210;5.768;2023-03-11T09:06:52;2.50;88.60
53748;DHT22;39655;53.210;5.768;2023-03-11T09:09:18;2.60;89.10
53748;DHT22;39655;53.210;5.768;2023-03-11T09:11:47;2.70;89.10
53748;DHT22;39655;53.210;5.768;2023-03-11T09:14:13;2.70;88.80
53748;DHT22;39655;53.210;5.768;2023-03-11T09:16:39;2.80;88.40
53748;DHT22;39655;53.210;5.768;2023-03-11T09:19:05;2.90;88.60
53748;DHT22;39655;53.210;5.768;2023-03-11T09:21:35;3.00;88.30
53748;DHT22;39655;53.210;5.768;2023-03-11T09:24:03;3.10;88.40
53748;DHT22;39655;53.210;5.768;2023-03-11T09:26:32;3.20;89.90
53748;DHT22;39655;53.210;5.768;2023-03-11T09:28:57;3.20;89.90
53748;DHT22;39655;53.210;5.768;2023-03-11T09:31:23;3.20;88.80
53748;DHT22;39655;53.210;5.768;2023-03-11T09:33:49;3.30;88.80
53748;DHT22;39655;53.210;5.768;2023-03-11T09:36:18;3.40;89.10
53748;DHT22;39655;53.210;5.768;2023-03-11T09:38:44;3.40;88.50
53748;DHT22;39655;53.210;5.768;2023-03-11T09:41:18;3.50;87.40
53748;DHT22;39655;53.210;5.768;2023-03-11T09:44:10;3.60;87.60
53748;DHT22;39655;53.210;5.768;2023-03-11T09:47:15;3.70;87.30
53748;DHT22;39655;53.210;5.768;2023-03-11T09:56:01;4.00;88.90
53748;DHT22;39655;53.210;5.768;2023-03-11T09:58:47;4.10;88.30
53748;DHT22;39655;53.210;5.768;2023-03-11T10:01:23;4.10;88.10
53748;DHT22;39655;53.210;5.768;2023-03-11T10:11:04;4.10;86.80
53748;DHT22;39655;53.210;5.768;2023-03-11T10:16:49;4.20;86.10
53748;DHT22;39655;53.210;5.768;2023-03-11T10:19:32;4.30;86.30
53748;DHT22;39655;53.210;5.768;2023-03-11T10:25:08;4.50;85.30
53748;DHT22;39655;53.210;5.768;2023-03-11T10:27:48;4.60;85.00
53748;DHT22;39655;53.210;5.768;2023-03-11T10:30:35;4.70;85.10
53748;DHT22;39655;53.210;5.768;2023-03-11T10:33:16;4.80;85.70
53748;DHT22;39655;53.210;5.768;2023-03-11T10:35:50;4.80;84.60
53748;DHT22;39655;53.210;5.768;2023-03-11T10:38:23;4.90;84.30
53748;DHT22;39655;53.210;5.768;2023-03-11T10:41:26;4.90;84.20
53748;DHT22;39655;53.210;5.768;2023-03-11T10:44:12;5.00;84.40
53748;DHT22;39655;53.210;5.768;2023-03-11T10:46:39;5.10;84.10
53748;DHT22;39655;53.210;5.768;2023-03-11T10:49:13;5.10;83.00
53748;DHT22;39655;53.210;5.768;2023-03-11T10:51:40;5.10;80.90
53748;DHT22;39655;53.210;5.768;2023-03-11T10:54:10;5.20;81.90
53748;DHT22;39655;53.210;5.768;2023-03-11T10:56:53;5.20;81.60
53748;DHT22;39655;53.210;5.768;2023-03-11T10:59:30;5.20;81.20
53748;DHT22;39655;53.210;5.768;2023-03-11T11:01:58;5.30;80.10
53748;DHT22;39655;53.210;5.768;2023-03-11T11:04:37;5.30;80.20
53748;DHT22;39655;53.210;5.768;2023-03-11T11:07:28;5.40;79.40
53748;DHT22;39655;53.210;5.768;2023-03-11T11:10:15;5.30;79.20
53748;DHT22;39655;53.210;5.768;2023-03-11T11:21:52;5.60;77.20
53748;DHT22;39655;53.210;5.768;2023-03-11T11:24:26;5.60;76.90
53748;DHT22;39655;53.210;5.768;2023-03-11T11:27:15;5.70;76.30
53748;DHT22;39655;53.210;5.768;2023-03-11T11:29:42;5.80;74.60
53748;DHT22;39655;53.210;5.768;2023-03-11T11:34:41;5.70;72.60
53748;DHT22;39655;53.210;5.768;2023-03-11T11:37:14;5.60;73.20
53748;DHT22;39655;53.210;5.768;2023-03-11T11:40:05;5.70;73.60
53748;DHT22;39655;53.210;5.768;2023-03-11T11:43:09;5.60;73.80
53748;DHT22;39655;53.210;5.768;2023-03-11T11:46:06;5.70;74.60
53748;DHT22;39655;53.210;5.768;2023-03-11T11:58:52;5.70;73.90
53748;DHT22;39655;53.210;5.768;2023-03-11T12:26:33;6.10;70.70
53748;DHT22;39655;53.210;5.768;2023-03-11T12:32:52;6.40;69.80
53748;DHT22;39655;53.210;5.768;2023-03-11T12:35:27;6.50;69.00
53748;DHT22;39655;53.210;5.768;2023-03-11T12:38:17;6.60;68.40
53748;DHT22;39655;53.210;5.768;2023-03-11T12:44:19;6.80;68.30
53748;DHT22;39655;53.210;5.768;2023-03-11T12:49:34;6.90;68.30
53748;DHT22;39655;53.210;5.768;2023-03-11T12:54:49;6.90;67.80
53748;DHT22;39655;53.210;5.768;2023-03-11T12:57:52;7.00;66.10
53748;DHT22;39655;53.210;5.768;2023-03-11T13:06:51;7.00;66.70
53748;DHT22;39655;53.210;5.768;2023-03-11T13:09:29;6.90;67.80
53748;DHT22;39655;53.210;5.768;2023-03-11T13:11:54;6.90;69.20
53748;DHT22;39655;53.210;5.768;2023-03-11T13:14:22;6.90;65.90
53748;DHT22;39655;53.210;5.768;2023-03-11T13:16:50;6.80;64.20
53748;DHT22;39655;53.210;5.768;2023-03-11T13:21:52;6.60;63.90
53748;DHT22;39655;53.210;5.768;2023-03-11T13:35:43;7.40;66.90
53748;DHT22;39655;53.210;5.768;2023-03-11T13:40:57;7.20;66.60
53748;DHT22;39655;53.210;5.768;2023-03-11T13:43:25;7.20;67.80
53748;DHT22;39655;53.210;5.768;2023-03-11T13:46:11;7.50;68.00
53748;DHT22;39655;53.210;5.768;2023-03-11T13:48:43;7.70;66.80
53748;DHT22;39655;53.210;5.768;2023-03-11T13:51:39;7.80;67.10
53748;DHT22;39655;53.210;5.768;2023-03-11T13:56:57;7.90;64.30
53748;DHT22;39655;53.210;5.768;2023-03-11T13:59:32;8.10;64.70
53748;DHT22;39655;53.210;5.768;2023-03-11T14:02:10;8.20;62.80
53748;DHT22;39655;53.210;5.768;2023-03-11T14:04:47;8.40;60.10
53748;DHT22;39655;53.210;5.768;2023-03-11T14:07:22;8.40;60.20
53748;DHT22;39655;53.210;5.768;2023-03-11T14:09:48;8.20;62.00
53748;DHT22;39655;53.210;5.768;2023-03-11T14:12:16;8.00;63.10
53748;DHT22;39655;53.210;5.768;2023-03-11T14:14:50;7.90;63.70
53748;DHT22;39655;53.210;5.768;2023-03-11T14:17:19;7.40;69.50
53748;DHT22;39655;53.210;5.768;2023-03-11T14:22:36;6.60;74.10
53748;DHT22;39655;53.210;5.768;2023-03-11T14:25:07;6.50;74.60
53748;DHT22;39655;53.210;5.768;2023-03-11T14:27:36;6.40;75.30
53748;DHT22;39655;53.210;5.768;2023-03-11T14:30:03;6.40;75.00
53748;DHT22;39655;53.210;5.768;2023-03-11T14:32:32;6.60;75.40
53748;DHT22;39655;53.210;5.768;2023-03-11T14:34:58;7.10;73.20
53748;DHT22;39655;53.210;5.768;2023-03-11T14:39:55;8.10;68.60
53748;DHT22;39655;53.210;5.768;2023-03-11T14:42:24;8.60;65.00
53748;DHT22;39655;53.210;5.768;2023-03-11T14:50:21;9.20;63.40
53748;DHT22;39655;53.210;5.768;2023-03-11T14:52:53;9.00;63.80
53748;DHT22;39655;53.210;5.768;2023-03-11T14:55:34;9.00;63.90
53748;DHT22;39655;53.210;5.768;2023-03-11T15:00:53;8.10;68.00
53748;DHT22;39655;53.210;5.768;2023-03-11T15:03:25;7.80;67.60
53748;DHT22;39655;53.210;5.768;2023-03-11T15:08:20;7.10;70.50
53748;DHT22;39655;53.210;5.768;2023-03-11T15:11:07;6.90;71.80
53748;DHT22;39655;53.210;5.768;2023-03-11T15:13:43;6.60;73.30
53748;DHT22;39655;53.210;5.768;2023-03-11T15:18:51;6.50;73.90
53748;DHT22;39655;53.210;5.768;2023-03-11T15:21:21;6.50;73.30
53748;DHT22;39655;53.210;5.768;2023-03-11T15:23:50;6.70;73.20
53748;DHT22;39655;53.210;5.768;2023-03-11T15:26:32;6.80;70.70
53748;DHT22;39655;53.210;5.768;2023-03-11T15:29:15;6.80;72.30
53748;DHT22;39655;53.210;5.768;2023-03-11T15:31:43;7.20;70.80
53748;DHT22;39655;53.210;5.768;2023-03-11T15:42:17;8.20;68.80
53748;DHT22;39655;53.210;5.768;2023-03-11T15:47:24;8.40;68.10
53748;DHT22;39655;53.210;5.768;2023-03-11T15:49:53;8.40;67.60
53748;DHT22;39655;53.210;5.768;2023-03-11T15:52:19;8.50;68.50
53748;DHT22;39655;53.210;5.768;2023-03-11T15:54:45;8.90;68.50
53748;DHT22;39655;53.210;5.768;2023-03-11T15:57:20;9.00;66.60
53748;DHT22;39655;53.210;5.768;2023-03-11T15:59:48;8.70;67.10
53748;DHT22;39655;53.210;5.768;2023-03-11T16:02:21;8.50;67.10
53748;DHT22;39655;53.210;5.768;2023-03-11T16:04:47;8.70;67.50
53748;DHT22;39655;53.210;5.768;2023-03-11T16:07:12;9.00;67.00
53748;DHT22;39655;53.210;5.768;2023-03-11T16:09:38;9.20;67.10
53748;DHT22;39655;53.210;5.768;2023-03-11T16:12:14;9.40;66.60
53748;DHT22;39655;53.210;5.768;2023-03-11T16:14:41;9.10;66.30
53748;DHT22;39655;53.210;5.768;2023-03-11T16:17:10;8.70;67.40
53748;DHT22;39655;53.210;5.768;2023-03-11T16:19:40;8.40;67.90
53748;DHT22;39655;53.210;5.768;2023-03-11T16:22:06;8.10;68.60
53748;DHT22;39655;53.210;5.768;2023-03-11T16:24:32;7.90;69.80
53748;DHT22;39655;53.210;5.768;2023-03-11T16:26:58;7.80;70.20
53748;DHT22;39655;53.210;5.768;2023-03-11T16:29:24;7.70;71.10
53748;DHT22;39655;53.210;5.768;2023-03-11T16:31:51;7.90;70.80
53748;DHT22;39655;53.210;5.768;2023-03-11T16:34:17;7.90;69.70
53748;DHT22;39655;53.210;5.768;2023-03-11T16:36:43;7.70;70.30
53748;DHT22;39655;53.210;5.768;2023-03-11T16:39:09;7.60;70.90
53748;DHT22;39655;53.210;5.768;2023-03-11T16:41:42;7.50;71.60
53748;DHT22;39655;53.210;5.768;2023-03-11T16:44:09;7.50;71.80
53748;DHT22;39655;53.210;5.768;2023-03-11T16:46:34;7.70;72.00
53748;DHT22;39655;53.210;5.768;2023-03-11T16:49:00;7.90;71.20
53748;DHT22;39655;53.210;5.768;2023-03-11T16:51:26;8.10;70.80
53748;DHT22;39655;53.210;5.768;2023-03-11T16:53:52;8.10;70.40
53748;DHT22;39655;53.210;5.768;2023-03-11T16:56:17;7.80;70.60
53748;DHT22;39655;53.210;5.768;2023-03-11T16:58:43;7.40;71.40
53748;DHT22;39655;53.210;5.768;2023-03-11T17:01:13;7.10;72.40
53748;DHT22;39655;53.210;5.768;2023-03-11T17:03:38;7.00;72.70
53748;DHT22;39655;53.210;5.768;2023-03-11T17:06:04;6.80;73.10
53748;DHT22;39655;53.210;5.768;2023-03-11T17:08:30;6.50;73.90
53748;DHT22;39655;53.210;5.768;2023-03-11T17:10:56;6.40;74.70
53748;DHT22;39655;53.210;5.768;2023-03-11T17:13:22;6.20;75.30
53748;DHT22;39655;53.210;5.768;2023-03-11T17:16:00;6.00;75.40
53748;DHT22;39655;53.210;5.768;2023-03-11T17:18:26;5.80;76.40
53748;DHT22;39655;53.210;5.768;2023-03-11T17:20:52;5.70;77.00
53748;DHT22;39655;53.210;5.768;2023-03-11T17:23:18;5.70;77.70
53748;DHT22;39655;53.210;5.768;2023-03-11T17:25:44;5.40;77.70
53748;DHT22;39655;53.210;5.768;2023-03-11T17:28:10;5.20;77.90
53748;DHT22;39655;53.210;5.768;2023-03-11T17:30:41;5.20;78.40
53748;DHT22;39655;53.210;5.768;2023-03-11T17:33:07;5.10;78.70
53748;DHT22;39655;53.210;5.768;2023-03-11T17:35:35;5.00;79.20
53748;DHT22;39655;53.210;5.768;2023-03-11T17:38:01;4.90;79.40
53748;DHT22;39655;53.210;5.768;2023-03-11T17:40:27;4.90;79.80
53748;DHT22;39655;53.210;5.768;2023-03-11T17:42:55;4.80;79.90
53748;DHT22;39655;53.210;5.768;2023-03-11T17:45:20;4.70;80.20
53748;DHT22;39655;53.210;5.768;2023-03-11T17:47:46;4.70;80.40
53748;DHT22;39655;53.210;5.768;2023-03-11T17:50:12;4.70;80.50
53748;DHT22;39655;53.210;5.768;2023-03-11T17:52:38;4.50;80.90
53748;DHT22;39655;53.210;5.768;2023-03-11T17:55:07;4.50;81.10
53748;DHT22;39655;53.210;5.768;2023-03-11T17:57:32;4.40;81.20
53748;DHT22;39655;53.210;5.768;2023-03-11T17:59:58;4.40;81.30
53748;DHT22;39655;53.210;5.768;2023-03-11T18:02:28;4.30;81.40
53748;DHT22;39655;53.210;5.768;2023-03-11T18:04:54;4.20;81.60